createdAt,value
2022-10-11T00:00:44.073Z,7.30
2022-10-11T00:03:34.986Z,7.20
2022-10-11T00:06:19.651Z,7.10
2022-10-11T00:08:53.000Z,7.10
2022-10-11T00:11:38.419Z,7.00
2022-10-11T00:14:31.064Z,6.90
2022-10-11T00:17:40.623Z,6.80
2022-10-11T00:20:19.914Z,6.70
2022-10-11T00:23:03.086Z,6.70
2022-10-11T00:25:49.684Z,6.70
2022-10-11T00:28:43.852Z,6.60
2022-10-11T00:31:22.879Z,6.60
2022-10-11T00:36:56.548Z,6.60
2022-10-11T00:39:35.107Z,6.60
2022-10-11T00:42:07.409Z,6.70
2022-10-11T00:44:45.294Z,6.70
2022-10-11T00:47:26.507Z,6.60
2022-10-11T00:50:01.959Z,6.60
2022-10-11T00:52:37.460Z,6.60
2022-10-11T00:55:19.470Z,6.60
2022-10-11T00:57:55.816Z,6.60
2022-10-11T01:00:30.594Z,6.60
2022-10-11T01:03:03.256Z,6.60
2022-10-11T01:05:40.537Z,6.70
2022-10-11T01:08:13.225Z,6.60
2022-10-11T01:10:52.330Z,6.60
2022-10-11T01:13:35.677Z,6.60
2022-10-11T01:16:16.711Z,6.60
2022-10-11T01:18:55.832Z,6.60
2022-10-11T01:21:36.222Z,6.50
2022-10-11T01:24:34.374Z,6.60
2022-10-11T01:27:33.744Z,6.60
2022-10-11T01:30:26.131Z,6.50
2022-10-11T01:33:18.604Z,6.50
2022-10-11T01:35:59.099Z,6.50
2022-10-11T01:38:38.836Z,6.50
2022-10-11T01:41:16.309Z,6.60
2022-10-11T01:43:48.726Z,6.80
2022-10-11T01:46:22.243Z,6.90
2022-10-11T01:48:53.758Z,7.10
2022-10-11T01:51:36.355Z,7.20
2022-10-11T01:54:17.794Z,7.30
2022-10-11T01:57:11.046Z,7.30
2022-10-11T01:59:56.562Z,7.40
2022-10-11T02:02:40.053Z,7.60
2022-10-11T02:05:15.984Z,7.60
2022-10-11T02:07:59.266Z,7.70
2022-10-11T02:10:34.757Z,7.80
2022-10-11T02:13:14.662Z,8.00
2022-10-11T02:15:47.045Z,8.10
2022-10-11T02:18:22.127Z,8.20
2022-10-11T02:20:57.522Z,8.30
2022-10-11T02:23:31.884Z,8.40
2022-10-11T02:26:08.546Z,8.50
2022-10-11T02:28:47.653Z,8.60
2022-10-11T02:31:23.521Z,8.70
2022-10-11T02:34:05.277Z,8.80
2022-10-11T02:36:51.300Z,8.90
2022-10-11T02:39:31.834Z,9.00
2022-10-11T02:42:08.676Z,9.10
2022-10-11T02:44:48.547Z,9.10
2022-10-11T02:47:35.531Z,9.20
2022-10-11T02:50:10.862Z,9.30
2022-10-11T02:52:42.138Z,9.30
2022-10-11T02:55:18.937Z,9.40
2022-10-11T02:57:54.143Z,9.50
2022-10-11T03:00:26.628Z,9.50
2022-10-11T03:03:08.814Z,9.60
2022-10-11T03:05:54.058Z,9.70
2022-10-11T03:08:25.022Z,9.80
2022-10-11T03:11:00.930Z,9.80
2022-10-11T03:13:39.158Z,9.90
2022-10-11T03:16:16.968Z,10.00
2022-10-11T03:19:07.743Z,10.00
2022-10-11T03:21:52.107Z,10.10
2022-10-11T03:24:29.893Z,10.30
2022-10-11T03:27:03.612Z,10.50
2022-10-11T03:29:36.198Z,10.60
2022-10-11T03:32:12.076Z,10.70
2022-10-11T03:34:46.522Z,10.80
2022-10-11T03:37:19.524Z,10.80
2022-10-11T03:39:50.621Z,10.80
2022-10-11T03:42:26.994Z,10.90
2022-10-11T03:45:05.426Z,10.90
2022-10-11T03:47:34.996Z,10.90
2022-10-11T03:50:12.176Z,10.90
2022-10-11T03:52:45.606Z,10.90
2022-10-11T03:55:21.005Z,10.90
2022-10-11T04:00:47.282Z,10.80
2022-10-11T04:03:27.499Z,10.80
2022-10-11T04:06:02.352Z,10.70
2022-10-11T04:08:38.585Z,10.60
2022-10-11T04:11:10.662Z,10.50
2022-10-11T04:13:42.001Z,10.40
2022-10-11T04:16:14.342Z,10.40
2022-10-11T04:18:48.459Z,10.30
2022-10-11T04:21:33.263Z,10.20
2022-10-11T04:24:26.198Z,10.10
2022-10-11T04:26:58.606Z,10.10
2022-10-11T04:29:32.576Z,10.00
2022-10-11T04:32:14.965Z,10.00
2022-10-11T04:34:45.887Z,10.10
2022-10-11T04:37:22.113Z,10.00
2022-10-11T04:39:57.188Z,9.90
2022-10-11T04:42:29.876Z,9.90
2022-10-11T04:45:03.018Z,9.90
2022-10-11T04:47:36.876Z,9.90
2022-10-11T04:50:23.037Z,9.70
2022-10-11T04:52:56.521Z,9.60
2022-10-11T04:55:30.196Z,9.60
2022-10-11T04:58:06.163Z,9.60
2022-10-11T05:00:40.789Z,9.50
2022-10-11T05:03:15.523Z,9.40
2022-10-11T05:05:48.717Z,9.30
2022-10-11T05:08:21.398Z,9.10
2022-10-11T05:11:02.009Z,8.90
2022-10-11T05:13:34.590Z,8.80
2022-10-11T05:16:11.128Z,8.70
2022-10-11T05:18:44.863Z,8.60
2022-10-11T05:21:19.947Z,8.70
2022-10-11T05:23:51.481Z,8.70
2022-10-11T05:26:24.447Z,8.80
2022-10-11T05:28:54.597Z,8.90
2022-10-11T05:31:24.925Z,9.00
2022-10-11T05:33:58.303Z,9.00
2022-10-11T05:36:28.258Z,9.10
2022-10-11T05:39:01.293Z,9.10
2022-10-11T05:41:34.975Z,9.10
2022-10-11T05:44:06.962Z,9.10
2022-10-11T05:46:38.752Z,9.20
2022-10-11T05:49:09.032Z,9.20
2022-10-11T05:51:40.683Z,9.20
2022-10-11T05:54:11.716Z,9.10
2022-10-11T05:56:43.651Z,9.10
2022-10-11T05:59:14.112Z,9.10
2022-10-11T06:01:45.804Z,9.00
2022-10-11T06:04:17.173Z,9.00
2022-10-11T06:06:48.999Z,9.00
2022-10-11T06:09:24.442Z,9.00
2022-10-11T06:12:01.008Z,9.00
2022-10-11T06:14:34.819Z,9.00
2022-10-11T06:17:04.707Z,9.00
2022-10-11T06:19:35.575Z,9.00
2022-10-11T06:22:05.539Z,8.90
2022-10-11T06:24:35.785Z,8.90
2022-10-11T06:27:08.343Z,8.90
2022-10-11T06:29:40.888Z,9.00
2022-10-11T06:32:13.443Z,9.10
2022-10-11T06:34:42.863Z,9.20
2022-10-11T06:37:14.592Z,9.30
2022-10-11T06:39:46.397Z,9.30
2022-10-11T06:42:17.112Z,9.40
2022-10-11T06:44:47.136Z,9.70
2022-10-11T06:47:15.538Z,9.80
2022-10-11T06:49:44.195Z,9.80
2022-10-11T06:52:14.697Z,10.00
2022-10-11T06:54:45.028Z,10.10
2022-10-11T06:57:22.589Z,10.20
2022-10-11T06:59:53.040Z,10.10
2022-10-11T07:02:26.093Z,10.20
2022-10-11T07:04:58.419Z,10.40
2022-10-11T07:07:31.463Z,10.30
2022-10-11T07:10:06.434Z,10.40
2022-10-11T07:12:47.669Z,10.50
2022-10-11T07:15:19.814Z,10.80
2022-10-11T07:20:46.467Z,11.00
2022-10-11T07:23:18.220Z,11.00
2022-10-11T07:25:55.175Z,11.00
2022-10-11T07:28:30.111Z,11.10
2022-10-11T07:31:07.119Z,11.40
2022-10-11T07:33:43.991Z,11.20
2022-10-11T07:36:18.595Z,11.40
2022-10-11T07:39:05.002Z,11.80
2022-10-11T07:41:45.422Z,12.00
2022-10-11T07:44:17.523Z,12.10
2022-10-11T07:46:47.934Z,12.50
2022-10-11T07:49:20.260Z,12.40
2022-10-11T07:51:49.398Z,12.00
2022-10-11T07:54:23.865Z,12.10
2022-10-11T07:56:54.852Z,12.50
2022-10-11T07:59:31.366Z,13.00
2022-10-11T08:02:04.993Z,13.40
2022-10-11T08:04:38.116Z,13.80
2022-10-11T08:07:09.593Z,13.50
2022-10-11T08:09:43.903Z,13.30
2022-10-11T08:12:15.342Z,12.90
2022-10-11T08:15:07.431Z,12.60
2022-10-11T08:18:04.067Z,12.40
2022-10-11T08:24:23.432Z,13.40
2022-10-11T08:27:24.385Z,13.80
2022-10-11T08:30:43.871Z,13.50
2022-10-11T08:36:43.590Z,13.50
2022-10-11T08:42:46.245Z,14.10
2022-10-11T08:45:40.053Z,13.70
2022-10-11T08:48:48.427Z,13.30
2022-10-11T08:58:21.354Z,13.30
2022-10-11T09:05:09.680Z,13.20
2022-10-11T09:08:04.243Z,13.20
2022-10-11T09:11:10.187Z,13.00
2022-10-11T09:14:30.411Z,13.30
2022-10-11T09:17:29.094Z,13.80
2022-10-11T09:20:40.810Z,14.40
2022-10-11T09:24:02.793Z,13.80
2022-10-11T09:27:08.022Z,13.90
2022-10-11T09:31:19.880Z,14.30
2022-10-11T09:34:40.538Z,14.80
2022-10-11T09:53:14.128Z,15.60
2022-10-11T09:57:02.498Z,16.00
2022-10-11T09:59:44.412Z,16.40
2022-10-11T10:02:41.135Z,15.50
2022-10-11T10:22:42.986Z,17.70
2022-10-11T10:25:23.740Z,17.00
2022-10-11T10:28:02.546Z,15.70
2022-10-11T10:30:36.812Z,15.10
2022-10-11T10:33:09.220Z,15.20
2022-10-11T10:35:42.815Z,15.30
2022-10-11T10:38:25.531Z,15.80
2022-10-11T10:40:59.650Z,15.50
2022-10-11T10:43:39.382Z,15.70
2022-10-11T11:00:27.635Z,18.00
2022-10-11T11:03:05.019Z,17.60
2022-10-11T11:05:46.690Z,16.30
2022-10-11T11:08:26.343Z,15.60
2022-10-11T11:11:03.103Z,15.90
2022-10-11T11:14:23.147Z,16.30
2022-10-11T11:20:21.910Z,18.30
2022-10-11T11:22:57.105Z,19.40
2022-10-11T11:25:31.916Z,19.20
2022-10-11T11:28:17.112Z,19.80
2022-10-11T11:34:47.676Z,19.00
2022-10-11T11:37:25.163Z,19.00
2022-10-11T11:39:58.311Z,18.60
2022-10-11T11:42:32.062Z,18.40
2022-10-11T11:45:08.735Z,17.90
2022-10-11T12:06:17.276Z,16.00
2022-10-11T12:09:22.221Z,15.50
2022-10-11T12:12:05.944Z,16.40
2022-10-11T12:14:40.986Z,16.30
2022-10-11T12:17:17.394Z,16.40
2022-10-11T12:20:03.012Z,16.30
2022-10-11T12:22:53.879Z,16.30
2022-10-11T12:25:45.383Z,16.50
2022-10-11T12:28:49.661Z,17.50
2022-10-11T12:31:22.004Z,17.60
2022-10-11T12:33:53.537Z,17.20
2022-10-11T12:36:37.186Z,17.70
2022-10-11T12:39:56.143Z,17.50
2022-10-11T12:43:24.356Z,18.20
2022-10-11T12:45:53.218Z,20.20
2022-10-11T12:48:40.942Z,19.70
2022-10-11T12:51:28.463Z,20.60
2022-10-11T12:54:27.366Z,20.10
2022-10-11T12:57:17.160Z,21.70
2022-10-11T12:59:47.132Z,22.60
2022-10-11T13:02:28.832Z,23.70
2022-10-11T13:05:07.867Z,24.60
2022-10-11T13:07:36.452Z,25.00
2022-10-11T13:10:06.824Z,24.80
2022-10-11T13:12:41.695Z,25.30
2022-10-11T13:15:16.361Z,25.30
2022-10-11T13:17:44.266Z,25.50
2022-10-11T13:20:19.370Z,25.00
2022-10-11T13:22:50.358Z,23.80
2022-10-11T13:25:20.765Z,21.40
2022-10-11T13:27:50.368Z,19.70
2022-10-11T13:30:22.639Z,19.10
2022-10-11T13:32:50.575Z,19.90
2022-10-11T13:35:24.740Z,20.60
2022-10-11T13:37:53.245Z,21.70
2022-10-11T13:40:22.963Z,22.60
2022-10-11T13:42:53.124Z,23.20
2022-10-11T13:45:24.888Z,23.60
2022-10-11T13:47:54.253Z,23.00
2022-10-11T13:50:30.428Z,23.30
2022-10-11T13:53:00.312Z,23.50
2022-10-11T13:55:31.233Z,23.50
2022-10-11T13:58:01.034Z,23.20
2022-10-11T14:00:32.139Z,22.40
2022-10-11T14:03:03.773Z,21.30
2022-10-11T14:05:36.268Z,20.60
2022-10-11T14:08:07.438Z,19.60
2022-10-11T14:10:35.978Z,20.50
2022-10-11T14:13:07.151Z,18.70
2022-10-11T14:15:38.233Z,18.80
2022-10-11T14:18:35.473Z,19.80
2022-10-11T14:21:24.486Z,20.60
2022-10-11T14:23:53.176Z,21.00
2022-10-11T14:26:22.500Z,20.20
2022-10-11T14:28:53.666Z,20.10
2022-10-11T14:31:23.064Z,19.70
2022-10-11T14:33:51.036Z,20.20
2022-10-11T14:36:20.319Z,19.80
2022-10-11T14:38:48.195Z,19.90
2022-10-11T14:41:16.087Z,19.70
2022-10-11T14:43:44.071Z,20.20
2022-10-11T14:46:21.671Z,20.40
2022-10-11T14:48:55.351Z,20.50
2022-10-11T14:51:28.538Z,20.10
2022-10-11T14:53:56.542Z,19.90
2022-10-11T14:56:24.530Z,19.50
2022-10-11T14:58:52.526Z,18.30
2022-10-11T15:01:20.566Z,18.00
2022-10-11T15:03:49.874Z,18.60
2022-10-11T15:06:21.438Z,18.60
2022-10-11T15:08:49.829Z,18.50
2022-10-11T15:11:19.682Z,18.30
2022-10-11T15:13:47.699Z,18.20
2022-10-11T15:16:17.762Z,17.90
2022-10-11T15:18:50.788Z,17.50
2022-10-11T15:21:24.064Z,16.40
2022-10-11T15:24:00.282Z,15.70
2022-10-11T15:26:30.845Z,15.50
2022-10-11T15:28:59.484Z,15.20
2022-10-11T15:31:35.104Z,14.50
2022-10-11T15:34:03.637Z,14.00
2022-10-11T15:36:38.050Z,13.90
2022-10-11T15:39:29.543Z,13.80
2022-10-11T15:42:07.621Z,13.80
2022-10-11T15:44:40.254Z,13.70
2022-10-11T15:47:15.362Z,13.70
2022-10-11T15:50:04.766Z,13.50
2022-10-11T15:52:40.952Z,13.40
2022-10-11T15:55:11.324Z,13.20
2022-10-11T15:57:43.082Z,13.00
2022-10-11T16:00:13.305Z,12.90
2022-10-11T16:02:41.812Z,12.70
2022-10-11T16:05:10.871Z,12.60
2022-10-11T16:07:41.385Z,12.40
2022-10-11T16:10:09.754Z,12.30
2022-10-11T16:12:38.010Z,12.00
2022-10-11T16:15:07.716Z,11.80
2022-10-11T16:17:35.995Z,11.50
2022-10-11T16:20:06.805Z,11.30
2022-10-11T16:22:35.279Z,11.20
2022-10-11T16:25:06.267Z,10.90
2022-10-11T16:27:34.951Z,10.80
2022-10-11T16:30:03.411Z,10.50
2022-10-11T16:32:36.217Z,10.40
2022-10-11T16:35:08.745Z,10.20
2022-10-11T16:37:37.749Z,10.10
2022-10-11T16:40:09.820Z,9.90
2022-10-11T16:42:40.919Z,9.80
2022-10-11T16:45:10.253Z,9.70
2022-10-11T16:47:39.562Z,9.60
2022-10-11T16:50:11.500Z,9.50
2022-10-11T16:52:42.627Z,9.40
2022-10-11T16:55:18.544Z,9.30
2022-10-11T16:57:48.553Z,9.10
2022-10-11T17:00:22.146Z,9.10
2022-10-11T17:03:19.020Z,8.90
2022-10-11T17:05:53.389Z,8.80
2022-10-11T17:08:22.610Z,8.70
2022-10-11T17:10:58.665Z,8.50
2022-10-11T17:13:31.644Z,8.40
2022-10-11T17:16:02.818Z,8.30
2022-10-11T17:18:38.349Z,8.20
2022-10-11T17:21:08.527Z,8.10
2022-10-11T17:23:41.858Z,8.00
2022-10-11T17:26:18.252Z,7.90
2022-10-11T17:28:50.082Z,7.90
2022-10-11T17:31:19.436Z,7.80
2022-10-11T17:33:49.075Z,7.70
2022-10-11T17:36:25.170Z,7.70
2022-10-11T17:38:54.972Z,7.70
2022-10-11T17:41:31.875Z,7.70
2022-10-11T17:44:04.242Z,7.60
2022-10-11T17:46:33.764Z,7.50
2022-10-11T17:49:05.176Z,7.50
2022-10-11T17:51:36.485Z,7.40
2022-10-11T17:54:08.915Z,7.30
2022-10-11T17:56:43.538Z,7.20
2022-10-11T17:59:19.117Z,7.20
2022-10-11T18:01:48.233Z,7.10
2022-10-11T18:04:22.513Z,7.00
2022-10-11T18:06:53.633Z,7.00
2022-10-11T18:09:25.932Z,6.90
2022-10-11T18:11:57.093Z,6.90
2022-10-11T18:14:36.530Z,6.90
2022-10-11T18:17:05.903Z,6.90
2022-10-11T18:19:37.435Z,6.80
2022-10-11T18:22:07.393Z,6.70
2022-10-11T18:24:38.978Z,6.60
2022-10-11T18:27:12.209Z,6.60
2022-10-11T18:29:43.068Z,6.50
2022-10-11T18:32:14.576Z,6.40
2022-10-11T18:34:45.001Z,6.30
2022-10-11T18:37:16.065Z,6.30
2022-10-11T18:39:46.398Z,6.20
2022-10-11T18:42:22.835Z,6.20
2022-10-11T18:44:53.515Z,6.10
2022-10-11T18:47:26.700Z,6.10
2022-10-11T18:50:02.876Z,6.10
2022-10-11T18:52:37.631Z,6.00
2022-10-11T18:55:13.502Z,6.00
2022-10-11T18:57:51.602Z,5.90
2022-10-11T19:00:41.879Z,5.90
2022-10-11T19:03:16.955Z,5.80
2022-10-11T19:06:04.745Z,5.80
2022-10-11T19:08:50.394Z,5.70
2022-10-11T19:11:34.452Z,5.70
2022-10-11T19:14:21.266Z,5.60
2022-10-11T19:17:18.344Z,5.60
2022-10-11T19:20:22.619Z,5.50
2022-10-11T19:25:54.178Z,5.40
2022-10-11T19:28:42.515Z,5.40
2022-10-11T19:41:53.705Z,5.20
2022-10-11T19:44:41.093Z,5.20
2022-10-11T19:48:08.387Z,5.10
2022-10-11T19:52:56.696Z,5.10
2022-10-11T20:08:41.250Z,4.80
2022-10-11T20:11:15.256Z,4.70
2022-10-11T20:13:44.631Z,4.70
2022-10-11T20:16:18.856Z,4.70
2022-10-11T20:18:50.807Z,4.70
2022-10-11T20:21:26.631Z,4.80
2022-10-11T20:24:01.940Z,4.70
2022-10-11T20:26:37.143Z,4.70
2022-10-11T20:29:08.925Z,4.60
2022-10-11T20:31:42.026Z,4.60
2022-10-11T20:34:16.361Z,4.50
2022-10-11T20:36:49.925Z,4.50
2022-10-11T20:39:24.144Z,4.40
2022-10-11T20:42:00.583Z,4.40
2022-10-11T20:47:40.895Z,4.30
2022-10-11T20:50:57.777Z,4.30
2022-10-11T20:53:33.732Z,4.30
2022-10-11T20:56:19.123Z,4.20
2022-10-11T20:59:18.463Z,4.20
2022-10-11T21:02:00.391Z,4.10
2022-10-11T21:08:20.200Z,4.10
2022-10-11T21:14:21.737Z,4.00
2022-10-11T21:17:13.351Z,4.00
2022-10-11T21:19:45.456Z,4.00
2022-10-11T21:22:17.780Z,3.90
2022-10-11T21:24:50.096Z,3.90
2022-10-11T21:27:22.215Z,3.80
2022-10-11T21:30:08.958Z,3.80
2022-10-11T21:32:39.492Z,3.80
2022-10-11T21:35:14.339Z,3.80
2022-10-11T21:37:47.001Z,3.70
2022-10-11T21:40:19.643Z,3.70
2022-10-11T21:42:50.121Z,3.70
2022-10-11T21:45:27.265Z,3.80
2022-10-11T21:48:00.229Z,3.70
2022-10-11T21:50:49.191Z,3.70
2022-10-11T21:53:22.850Z,3.80
2022-10-11T21:56:00.656Z,3.70
2022-10-11T21:58:38.168Z,3.60
2022-10-11T22:01:32.044Z,3.60
2022-10-11T22:04:37.956Z,3.50
2022-10-11T22:11:54.153Z,3.50
2022-10-11T22:24:42.610Z,3.50
2022-10-11T22:30:47.563Z,3.50
2022-10-11T22:33:34.257Z,3.40
2022-10-11T22:37:10.488Z,3.40
2022-10-11T22:39:54.502Z,3.40
2022-10-11T22:42:29.549Z,3.30
2022-10-11T22:45:11.315Z,3.30
2022-10-11T22:48:28.307Z,3.30
2022-10-11T22:54:43.974Z,3.30
2022-10-11T22:57:52.394Z,3.20
2022-10-11T23:00:41.902Z,3.20
2022-10-11T23:03:26.987Z,3.10
2022-10-11T23:16:37.950Z,3.00
2022-10-11T23:23:15.957Z,2.90
2022-10-11T23:32:44.009Z,2.70
2022-10-11T23:35:39.221Z,2.70
2022-10-11T23:38:36.002Z,2.60
2022-10-11T23:45:03.654Z,2.70
2022-10-11T23:48:13.873Z,2.70
